Time;durP1;ratioP1;P1;durP2;ratioP2;P2;SDS_P1;SDS_P2;PMS_P1;PMS_P2;Temp;Humidity;BMP_temperature;BMP_pressure;BME280_temperature;BME280_humidity;BME280_pressure;Samples;Min_cycle;Max_cycle;Signal;HPM_P1;HPM_P2
2022/11/28 00:00:00;;;;;;;15.15;8.50;;;7.80;99.90;;;;;;6189078;23;20039;-87
2022/11/28 00:02:25;;;;;;;10.32;7.53;;;7.80;99.90;;;;;;6189268;23;20008;-86
2022/11/28 00:04:52;;;;;;;13.80;8.23;;;7.80;99.90;;;;;;6189440;23;20005;-86
2022/11/28 00:07:18;;;;;;;13.63;8.60;;;7.80;99.90;;;;;;6189290;23;20025;-86
2022/11/28 00:09:43;;;;;;;14.18;9.25;;;7.80;99.90;;;;;;6189165;23;20427;-86
2022/11/28 00:12:09;;;;;;;12.55;8.15;;;7.80;99.90;;;;;;6139576;23;20007;-86
2022/11/28 00:14:35;;;;;;;15.93;8.32;;;7.80;99.90;;;;;;6164543;23;20012;-86
2022/11/28 00:17:00;;;;;;;12.82;7.55;;;7.80;99.90;;;;;;6164263;23;20503;-87
2022/11/28 00:19:26;;;;;;;11.77;7.40;;;7.80;99.90;;;;;;6189485;23;20005;-87
2022/11/28 00:21:51;;;;;;;12.45;7.72;;;7.80;99.90;;;;;;6164006;23;20079;-87
2022/11/28 00:24:17;;;;;;;14.05;8.90;;;7.80;99.90;;;;;;6140167;23;20362;-87
2022/11/28 00:26:43;;;;;;;10.63;7.13;;;7.80;99.90;;;;;;6189494;23;20403;-87
2022/11/28 00:29:10;;;;;;;10.65;7.47;;;7.80;99.90;;;;;;6163925;23;20427;-86
2022/11/28 00:31:41;;;;;;;11.52;7.20;;;7.80;99.90;;;;;;6163847;23;20016;-86
2022/11/28 00:34:10;;;;;;;;;;;7.80;99.90;;;;;;6189694;23;20005;-86
2022/11/28 00:36:36;;;;;;;10.77;6.90;;;7.80;99.90;;;;;;6191347;23;19904;-86
2022/11/28 00:39:05;;;;;;;12.57;6.72;;;7.70;99.90;;;;;;6190548;23;20378;-87
2022/11/28 00:41:34;;;;;;;11.30;7.47;;;7.80;99.90;;;;;;6166890;23;20012;-86
2022/11/28 00:44:00;;;;;;;10.50;6.78;;;7.80;99.90;;;;;;6217402;23;20005;-86
2022/11/28 00:46:27;;;;;;;11.60;7.10;;;7.80;99.90;;;;;;6191191;23;20035;-86
2022/11/28 00:48:53;;;;;;;13.10;6.78;;;7.80;99.90;;;;;;6217511;23;20004;-87
2022/11/28 00:51:21;;;;;;;11.85;7.22;;;7.80;99.90;;;;;;6197878;23;20007;-83
2022/11/28 00:53:49;;;;;;;10.43;6.88;;;7.90;99.90;;;;;;6212732;23;20068;-85
2022/11/28 00:56:18;;;;;;;10.13;6.10;;;7.90;99.90;;;;;;6215412;23;20000;-84
2022/11/28 00:58:44;;;;;;;13.40;7.18;;;7.90;99.90;;;;;;6215546;23;20001;-84
2022/11/28 01:01:12;;;;;;;11.25;6.70;;;7.90;99.90;;;;;;6241800;23;20008;-84
2022/11/28 01:03:38;;;;;;;15.15;6.55;;;8.00;99.90;;;;;;6198893;23;20008;-85
2022/11/28 01:06:08;;;;;;;12.10;5.97;;;8.00;99.90;;;;;;6200737;23;20005;-84
2022/11/28 01:08:33;;;;;;;11.43;6.63;;;8.00;99.90;;;;;;6175672;23;20001;-84
2022/11/28 01:11:00;;;;;;;11.77;6.25;;;8.00;99.90;;;;;;6164800;23;20004;-86
2022/11/28 01:13:26;;;;;;;12.18;6.20;;;8.00;99.90;;;;;;6210832;23;20013;-85
2022/11/28 01:15:52;;;;;;;9.70;5.63;;;8.00;99.90;;;;;;6191120;23;19996;-85
2022/11/28 01:18:17;;;;;;;11.52;6.03;;;8.10;99.90;;;;;;6190425;23;20020;-85
2022/11/28 01:20:43;;;;;;;11.00;6.28;;;8.10;99.90;;;;;;6190846;23;20087;-85
2022/11/28 01:23:09;;;;;;;9.55;6.40;;;8.10;99.90;;;;;;6190205;23;20017;-84
2022/11/28 01:25:34;;;;;;;9.73;5.63;;;8.10;99.90;;;;;;6190351;23;20008;-85
2022/11/28 01:28:00;;;;;;;8.07;5.10;;;8.10;99.90;;;;;;6165345;23;20009;-85
2022/11/28 01:30:26;;;;;;;8.80;5.43;;;8.10;99.90;;;;;;6216897;23;20406;-85
2022/11/28 01:32:52;;;;;;;13.10;6.30;;;8.20;99.90;;;;;;6190803;23;20011;-85
2022/11/28 01:35:17;;;;;;;8.77;5.03;;;8.20;99.90;;;;;;6190226;23;20009;-85
2022/11/28 01:37:43;;;;;;;10.98;5.50;;;8.20;99.90;;;;;;6190307;23;20001;-85
2022/11/28 01:40:11;;;;;;;7.30;4.63;;;8.30;99.90;;;;;;6190133;23;20012;-85
2022/11/28 01:42:37;;;;;;;8.27;5.18;;;8.30;99.90;;;;;;6216802;23;20001;-85
2022/11/28 01:45:32;;;;;;;9.23;5.20;;;8.30;99.90;;;;;;6189937;23;20009;-85
2022/11/28 01:48:01;;;;;;;9.52;5.10;;;8.40;99.90;;;;;;6196914;23;20419;-87
2022/11/28 01:50:30;;;;;;;9.48;4.82;;;8.40;99.90;;;;;;6189876;23;20008;-85
2022/11/28 01:53:00;;;;;;;9.25;5.68;;;8.40;99.90;;;;;;6190463;23;20004;-85
2022/11/28 01:55:30;;;;;;;9.60;5.70;;;8.40;99.90;;;;;;6216616;23;20012;-85
2022/11/28 01:57:56;;;;;;;10.45;5.18;;;8.40;99.90;;;;;;6189958;23;20001;-85
2022/11/28 02:00:22;;;;;;;7.50;5.00;;;8.50;99.90;;;;;;6164849;23;20004;-85
2022/11/28 02:02:51;;;;;;;9.35;5.50;;;8.50;99.90;;;;;;6165360;23;20051;-85
2022/11/28 02:05:19;;;;;;;9.88;5.82;;;8.50;99.90;;;;;;6189552;23;20004;-84
2022/11/28 02:07:47;;;;;;;8.75;5.65;;;8.50;99.90;;;;;;6216488;23;19997;-85
2022/11/28 02:10:30;;;;;;;9.00;5.82;;;8.50;99.90;;;;;;6189480;23;20331;-84
2022/11/28 02:13:13;;;;;;;7.60;5.00;;;8.50;99.90;;;;;;6190087;23;20388;-85
2022/11/28 02:15:39;;;;;;;8.52;5.10;;;8.40;99.90;;;;;;6190154;23;20415;-85
2022/11/28 02:18:19;;;;;;;12.60;6.20;;;8.40;99.90;;;;;;6189258;23;20001;-85
2022/11/28 02:21:17;;;;;;;14.07;6.65;;;8.40;99.90;;;;;;6216285;23;20007;-86
2022/11/28 02:23:54;;;;;;;10.15;6.70;;;8.40;99.90;;;;;;6215921;23;20016;-85
2022/11/28 02:26:20;;;;;;;10.20;6.68;;;8.40;99.90;;;;;;6189342;23;20008;-86
2022/11/28 02:29:10;;;;;;;13.05;7.20;;;8.40;99.90;;;;;;6190879;23;20012;-86
2022/11/28 02:32:10;;;;;;;13.02;8.27;;;8.40;99.90;;;;;;6190298;23;20001;-86
2022/11/28 02:35:00;;;;;;;15.23;7.00;;;8.40;99.90;;;;;;6189864;23;20086;-85
2022/11/28 02:37:31;;;;;;;11.95;6.97;;;8.40;99.90;;;;;;6189546;23;20003;-85
2022/11/28 02:40:28;;;;;;;10.98;7.65;;;8.40;99.90;;;;;;6216474;23;20012;-86
2022/11/28 02:43:18;;;;;;;11.82;6.57;;;8.40;99.90;;;;;;6169596;23;20009;-86
2022/11/28 02:45:52;;;;;;;12.77;7.10;;;8.40;99.90;;;;;;6189946;23;20331;-86
2022/11/28 02:48:37;;;;;;;11.63;7.05;;;8.40;99.90;;;;;;6215973;23;19997;-86
2022/11/28 02:51:32;;;;;;;11.52;7.28;;;8.40;99.90;;;;;;6189707;23;20031;-86
2022/11/28 02:54:00;;;;;;;13.70;7.93;;;8.40;99.90;;;;;;6189717;23;20008;-86
2022/11/28 02:56:29;;;;;;;15.40;7.78;;;8.40;99.90;;;;;;6215810;23;20489;-86
2022/11/28 02:58:55;;;;;;;13.07;8.30;;;8.40;99.90;;;;;;6189736;23;20027;-86
2022/11/28 03:01:34;;;;;;;13.55;8.32;;;8.40;99.90;;;;;;6164550;23;20005;-85
2022/11/28 03:04:23;;;;;;;13.18;8.15;;;8.40;99.90;;;;;;6216178;23;20015;-86
2022/11/28 03:07:13;;;;;;;16.52;8.23;;;8.40;99.90;;;;;;6189748;23;20004;-86
2022/11/28 03:10:04;;;;;;;12.05;7.45;;;8.40;99.90;;;;;;6216114;23;19997;-86
2022/11/28 03:13:08;;;;;;;13.63;7.90;;;8.40;99.90;;;;;;6215811;23;19996;-87
2022/11/28 03:15:51;;;;;;;12.73;6.90;;;8.40;99.90;;;;;;6189331;23;19997;-85
2022/11/28 03:18:24;;;;;;;12.63;7.07;;;8.40;99.90;;;;;;6215769;23;20007;-85
2022/11/28 03:21:01;;;;;;;11.20;7.03;;;8.40;99.90;;;;;;6189349;23;20005;-86
2022/11/28 03:23:36;;;;;;;12.18;6.90;;;8.40;99.90;;;;;;6188770;23;20059;-85
2022/11/28 03:26:17;;;;;;;10.38;6.22;;;8.50;99.90;;;;;;6215851;23;19997;-86
2022/11/28 03:28:59;;;;;;;11.85;6.10;;;8.50;99.90;;;;;;6189586;23;20007;-85
2022/11/28 03:31:49;;;;;;;9.32;6.05;;;8.50;99.90;;;;;;6189547;23;20028;-86
2022/11/28 03:34:19;;;;;;;11.90;6.50;;;8.50;99.90;;;;;;6189347;23;20327;-85
2022/11/28 03:36:56;;;;;;;11.77;6.85;;;8.50;99.90;;;;;;6164633;23;20025;-86
2022/11/28 03:39:27;;;;;;;13.43;7.68;;;8.50;99.90;;;;;;6215912;23;20028;-86
2022/11/28 03:42:11;;;;;;;13.70;8.32;;;8.50;99.90;;;;;;6189318;23;20008;-86
2022/11/28 03:45:01;;;;;;;15.65;9.73;;;8.50;99.90;;;;;;6189295;23;20040;-86
2022/11/28 03:47:33;;;;;;;15.05;9.25;;;8.50;99.90;;;;;;6189560;23;20009;-86
2022/11/28 03:50:04;;;;;;;15.93;10.63;;;8.50;99.90;;;;;;6189689;23;20008;-86
2022/11/28 03:52:38;;;;;;;18.52;10.85;;;8.50;99.90;;;;;;6189139;23;20319;-86
2022/11/28 03:55:16;;;;;;;15.45;9.93;;;8.50;99.90;;;;;;6189239;23;20046;-86
2022/11/28 03:57:49;;;;;;;18.90;10.40;;;8.50;99.90;;;;;;6189228;23;20131;-86
2022/11/28 04:00:16;;;;;;;16.88;10.30;;;8.50;99.90;;;;;;6189289;23;20012;-87
2022/11/28 04:03:19;;;;;;;18.17;10.43;;;8.50;99.90;;;;;;6164851;23;20407;-87
2022/11/28 04:06:13;;;;;;;15.25;10.13;;;8.60;99.90;;;;;;6193489;23;20031;-86
2022/11/28 04:08:43;;;;;;;16.52;10.13;;;8.60;99.90;;;;;;6215039;23;20050;-86
2022/11/28 04:11:21;;;;;;;14.32;9.48;;;8.60;99.90;;;;;;6188948;23;19997;-87
2022/11/28 04:13:58;;;;;;;14.60;10.27;;;8.60;99.90;;;;;;6188847;23;20005;-87
2022/11/28 04:16:38;;;;;;;13.18;9.15;;;8.60;99.90;;;;;;6215686;23;20032;-87
2022/11/28 04:19:09;;;;;;;17.58;9.80;;;8.50;99.90;;;;;;6189532;23;20095;-87
2022/11/28 04:21:44;;;;;;;15.50;10.07;;;8.50;99.90;;;;;;6189044;23;20005;-87
2022/11/28 04:24:14;;;;;;;15.20;9.68;;;8.50;99.90;;;;;;6184376;23;20041;-87
2022/11/28 04:26:51;;;;;;;13.48;9.57;;;8.50;99.90;;;;;;6185813;23;20076;-87
2022/11/28 04:29:22;;;;;;;17.25;10.90;;;8.60;99.90;;;;;;6186561;23;20025;-87
2022/11/28 04:31:49;;;;;;;;;;;8.60;99.90;;;;;;6185378;23;20057;-88
2022/11/28 04:34:19;;;;;;;14.88;9.57;;;8.50;99.90;;;;;;6184108;23;19900;-87
2022/11/28 04:36:47;;;;;;;15.30;9.70;;;8.50;99.90;;;;;;6184618;23;20056;-87
2022/11/28 04:39:17;;;;;;;16.10;10.05;;;8.60;99.90;;;;;;6184235;23;19997;-87
2022/11/28 04:42:01;;;;;;;15.32;10.18;;;8.50;99.90;;;;;;6184571;23;20005;-88
2022/11/28 04:44:46;;;;;;;15.88;9.85;;;8.60;99.90;;;;;;6184668;23;20017;-87
2022/11/28 04:47:12;;;;;;;15.35;10.18;;;8.60;99.90;;;;;;6184257;23;20024;-87
2022/11/28 04:49:38;;;;;;;17.88;11.30;;;8.60;99.90;;;;;;6184303;23;20009;-88
2022/11/28 04:52:42;;;;;;;18.65;9.82;;;8.60;99.90;;;;;;6184500;23;20008;-88
2022/11/28 04:55:42;;;;;;;15.88;9.80;;;8.60;99.90;;;;;;6139045;23;20005;-89
2022/11/28 04:58:18;;;;;;;16.90;10.60;;;8.60;99.90;;;;;;6184585;23;20006;-88
2022/11/28 05:00:46;;;;;;;13.70;9.60;;;8.60;99.90;;;;;;6183996;23;20001;-87
2022/11/28 05:03:12;;;;;;;15.23;10.05;;;8.60;99.90;;;;;;6184209;23;20013;-88
2022/11/28 05:05:44;;;;;;;16.70;10.18;;;8.60;99.90;;;;;;6159429;23;20475;-87
2022/11/28 05:08:10;;;;;;;15.63;10.32;;;8.60;99.90;;;;;;6184527;23;20305;-88
2022/11/28 05:10:36;;;;;;;16.00;10.48;;;8.60;99.90;;;;;;6159749;23;20096;-88
2022/11/28 05:13:02;;;;;;;17.60;10.13;;;8.60;99.90;;;;;;6184156;23;20009;-88
2022/11/28 05:15:28;;;;;;;15.27;9.40;;;8.60;99.90;;;;;;6159052;23;20005;-88
2022/11/28 05:18:02;;;;;;;16.65;10.30;;;8.60;99.90;;;;;;6159506;23;20051;-87
2022/11/28 05:20:29;;;;;;;16.30;9.70;;;8.60;99.90;;;;;;6185645;23;20075;-88
2022/11/28 05:22:55;;;;;;;14.63;9.82;;;8.60;99.90;;;;;;6185823;23;20020;-88
2022/11/28 05:25:21;;;;;;;17.00;9.25;;;8.60;99.90;;;;;;6186047;23;20008;-87
2022/11/28 05:27:47;;;;;;;15.38;9.85;;;8.60;99.90;;;;;;6185888;23;20001;-88
2022/11/28 05:30:13;;;;;;;17.38;10.95;;;8.60;99.90;;;;;;6161515;23;20005;-88
2022/11/28 05:32:38;;;;;;;19.17;10.75;;;8.60;99.90;;;;;;6160764;23;20025;-88
2022/11/28 05:35:05;;;;;;;13.70;8.95;;;8.60;99.90;;;;;;6185695;23;20032;-88
2022/11/28 05:37:30;;;;;;;22.60;9.70;;;8.60;99.90;;;;;;6187095;23;20116;-89
2022/11/28 05:39:56;;;;;;;16.02;8.88;;;8.60;99.90;;;;;;6161452;23;20037;-88
2022/11/28 05:42:27;;;;;;;13.50;9.25;;;8.60;99.90;;;;;;6160235;23;20009;-88
2022/11/28 05:45:00;;;;;;;16.92;10.02;;;8.60;99.90;;;;;;6185604;23;20339;-88
2022/11/28 05:47:31;;;;;;;16.00;9.57;;;8.60;99.90;;;;;;6186112;23;20322;-88
2022/11/28 05:49:57;;;;;;;15.63;10.10;;;8.60;99.90;;;;;;6186126;23;20009;-89
2022/11/28 05:52:28;;;;;;;13.35;9.02;;;8.70;99.90;;;;;;6185113;23;20419;-89
2022/11/28 05:54:57;;;;;;;14.00;8.57;;;8.70;99.90;;;;;;6186540;23;20001;-90
2022/11/28 05:57:25;;;;;;;14.73;9.45;;;8.70;99.90;;;;;;6187495;23;20083;-89
2022/11/28 05:59:54;;;;;;;13.23;8.88;;;8.60;99.90;;;;;;6185837;23;20006;-89
2022/11/28 06:02:24;;;;;;;14.40;8.95;;;8.70;99.90;;;;;;6163802;23;20059;-89
2022/11/28 06:04:50;;;;;;;14.77;9.57;;;8.60;99.90;;;;;;6163699;23;20012;-88
2022/11/28 06:07:23;;;;;;;14.63;9.15;;;8.70;99.90;;;;;;6202434;23;20574;-88
2022/11/28 06:09:53;;;;;;;13.43;8.13;;;8.60;99.90;;;;;;6164001;23;20005;-88
2022/11/28 06:12:19;;;;;;;12.93;9.75;;;8.70;99.90;;;;;;6162086;23;20014;-88
2022/11/28 06:14:45;;;;;;;13.27;8.25;;;8.60;99.90;;;;;;6185733;23;20011;-89
2022/11/28 06:17:11;;;;;;;13.05;8.70;;;8.70;99.90;;;;;;6185740;23;20001;-88
2022/11/28 06:19:41;;;;;;;14.10;8.88;;;8.70;99.90;;;;;;6185657;23;20036;-89
2022/11/28 06:22:08;;;;;;;13.93;8.73;;;8.70;99.90;;;;;;6189904;23;20040;-88
2022/11/28 06:24:34;;;;;;;12.40;8.20;;;8.70;99.90;;;;;;6217008;23;20079;-88
2022/11/28 06:27:00;;;;;;;13.52;9.10;;;8.70;99.90;;;;;;6190810;23;20001;-88
2022/11/28 06:29:28;;;;;;;12.23;8.20;;;8.70;99.90;;;;;;6165525;23;20000;-88
2022/11/28 06:31:57;;;;;;;12.73;8.63;;;8.70;99.90;;;;;;6190675;23;20083;-88
2022/11/28 06:34:25;;;;;;;13.07;8.85;;;8.70;99.90;;;;;;6190807;23;20008;-88
2022/11/28 06:36:51;;;;;;;13.10;8.60;;;8.70;99.90;;;;;;6165693;23;20059;-88
2022/11/28 06:39:17;;;;;;;13.70;8.63;;;8.70;99.90;;;;;;6190732;23;20008;-89
2022/11/28 06:41:43;;;;;;;15.77;9.57;;;8.70;99.90;;;;;;6190641;23;20083;-88
2022/11/28 06:44:13;;;;;;;14.23;8.52;;;8.70;99.90;;;;;;6190790;23;20031;-88
2022/11/28 06:46:40;;;;;;;15.77;9.50;;;8.60;99.90;;;;;;6217023;23;20001;-89
2022/11/28 06:49:05;;;;;;;12.98;8.68;;;8.70;99.90;;;;;;6216984;23;19996;-89
2022/11/28 06:51:34;;;;;;;15.75;9.45;;;8.70;99.90;;;;;;6190533;23;20007;-88
2022/11/28 06:54:08;;;;;;;14.93;9.20;;;8.70;99.90;;;;;;6189982;23;20005;-89
2022/11/28 06:56:36;;;;;;;14.63;10.18;;;8.70;99.90;;;;;;6216793;23;20000;-89
2022/11/28 06:59:04;;;;;;;16.85;9.73;;;8.70;99.90;;;;;;6190124;23;20009;-88
2022/11/28 07:01:50;;;;;;;15.75;9.80;;;8.70;99.90;;;;;;5091856;27;20439;-86
2022/11/28 07:04:15;;;;;;;17.38;9.85;;;8.70;99.90;;;;;;5107439;28;20481;-86
2022/11/28 07:06:43;;;;;;;13.05;9.02;;;8.70;99.90;;;;;;5073583;28;20024;-86
2022/11/28 07:09:09;;;;;;;15.65;9.48;;;8.70;99.90;;;;;;5074040;28;20028;-86
2022/11/28 07:11:34;;;;;;;12.95;9.27;;;8.70;99.90;;;;;;5090574;28;20090;-86
2022/11/28 07:14:01;;;;;;;13.70;9.55;;;8.70;99.90;;;;;;5073772;28;20107;-88
2022/11/28 07:16:30;;;;;;;13.98;10.18;;;8.70;99.90;;;;;;5090856;28;20043;-88
2022/11/28 07:18:56;;;;;;;15.85;10.57;;;8.70;99.90;;;;;;5098805;28;20028;-89
2022/11/28 07:21:22;;;;;;;15.65;10.52;;;8.70;99.90;;;;;;5090851;28;20108;-89
2022/11/28 07:23:49;;;;;;;17.88;9.60;;;8.70;99.90;;;;;;5079048;28;20052;-89
2022/11/28 07:26:17;;;;;;;14.77;10.48;;;8.70;99.90;;;;;;5090637;28;20017;-89
2022/11/28 07:28:43;;;;;;;15.27;9.63;;;8.70;99.90;;;;;;5107095;28;20024;-87
2022/11/28 07:31:13;;;;;;;17.48;9.93;;;8.70;99.90;;;;;;5094563;28;20039;-87
2022/11/28 07:33:39;;;;;;;14.02;10.05;;;8.70;99.90;;;;;;5110562;28;20023;-86
2022/11/28 07:36:15;;;;;;;14.95;10.30;;;8.70;99.90;;;;;;5094086;28;20034;-86
2022/11/28 07:38:41;;;;;;;13.82;9.77;;;8.70;99.90;;;;;;5096339;28;20024;-88
2022/11/28 07:41:09;;;;;;;16.75;10.40;;;8.70;99.90;;;;;;5091501;28;20047;-89
2022/11/28 07:43:35;;;;;;;12.73;9.35;;;8.70;99.90;;;;;;5087384;28;20025;-89
2022/11/28 07:46:06;;;;;;;12.10;8.68;;;8.70;99.90;;;;;;5072062;28;20098;-89
2022/11/28 07:48:33;;;;;;;14.85;10.50;;;8.70;99.90;;;;;;5088211;28;20530;-86
2022/11/28 07:50:59;;;;;;;14.63;10.30;;;8.70;99.90;;;;;;5054469;28;20029;-87
2022/11/28 07:53:24;;;;;;;14.57;10.00;;;8.70;99.90;;;;;;5070155;28;20041;-87
2022/11/28 07:55:50;;;;;;;17.27;11.30;;;8.70;99.90;;;;;;5090565;28;20067;-88
2022/11/28 07:58:16;;;;;;;13.73;9.27;;;8.70;99.90;;;;;;5086683;28;20120;-86
2022/11/28 08:00:42;;;;;;;16.38;10.20;;;8.70;99.90;;;;;;5087341;28;20048;-86
2022/11/28 08:03:07;;;;;;;15.25;10.95;;;8.70;99.90;;;;;;5089907;28;20025;-87
2022/11/28 08:05:33;;;;;;;14.88;10.90;;;8.70;99.90;;;;;;5069836;28;20033;-86
2022/11/28 08:07:59;;;;;;;17.65;10.75;;;8.70;99.90;;;;;;5085906;28;20104;-87
2022/11/28 08:10:24;;;;;;;16.60;11.02;;;8.70;99.90;;;;;;5056257;28;20058;-87
2022/11/28 08:12:50;;;;;;;14.52;9.90;;;8.70;99.90;;;;;;5060745;28;20035;-87
2022/11/28 08:15:16;;;;;;;18.98;11.63;;;8.70;99.90;;;;;;5042750;28;20569;-87
2022/11/28 08:17:41;;;;;;;15.57;11.63;;;8.70;99.90;;;;;;5042821;28;20036;-86
2022/11/28 08:20:08;;;;;;;16.30;10.68;;;8.70;99.90;;;;;;5042240;28;20031;-86
2022/11/28 08:22:33;;;;;;;16.58;11.07;;;8.70;99.90;;;;;;5084840;28;20106;-87
2022/11/28 08:24:59;;;;;;;17.85;11.65;;;8.70;99.90;;;;;;5072200;28;20017;-87
2022/11/28 08:27:25;;;;;;;15.13;10.55;;;8.70;99.90;;;;;;5070795;28;20020;-88
2022/11/28 08:29:50;;;;;;;17.45;10.80;;;8.70;99.90;;;;;;5058487;28;20116;-88
2022/11/28 08:32:16;;;;;;;17.20;11.50;;;8.70;99.90;;;;;;5042810;28;20043;-87
2022/11/28 08:34:42;;;;;;;16.92;11.10;;;8.80;99.90;;;;;;5059201;28;20024;-89
2022/11/28 08:37:07;;;;;;;19.88;11.65;;;8.70;99.90;;;;;;5059529;28;20029;-89
2022/11/28 08:39:33;;;;;;;18.92;11.13;;;8.80;99.90;;;;;;5059095;28;20024;-89
2022/11/28 08:42:00;;;;;;;18.88;12.15;;;8.80;99.90;;;;;;5042996;28;20025;-88
2022/11/28 08:44:26;;;;;;;16.98;11.05;;;8.80;99.90;;;;;;5038980;28;20445;-88
2022/11/28 08:46:52;;;;;;;18.63;11.45;;;8.80;99.90;;;;;;5055944;28;20167;-90
2022/11/28 08:49:18;;;;;;;16.50;11.80;;;8.80;99.90;;;;;;5074313;28;20024;-91
2022/11/28 08:51:44;;;;;;;19.42;11.77;;;8.90;99.90;;;;;;5079130;28;20089;-86
2022/11/28 08:54:10;;;;;;;17.00;11.25;;;8.80;99.90;;;;;;5078728;28;20024;-87
2022/11/28 08:56:36;;;;;;;16.50;11.15;;;8.80;99.90;;;;;;5079275;28;20093;-88
2022/11/28 08:59:02;;;;;;;18.90;12.57;;;8.90;99.90;;;;;;5073092;28;20017;-89
2022/11/28 09:01:28;;;;;;;18.67;12.15;;;8.90;99.90;;;;;;5058759;28;20048;-89
2022/11/28 09:03:54;;;;;;;19.15;12.20;;;8.90;99.90;;;;;;5058982;28;20469;-90
2022/11/28 09:06:23;;;;;;;16.83;10.88;;;8.80;99.90;;;;;;5075857;28;20084;-87
2022/11/28 09:08:50;;;;;;;19.13;11.38;;;8.90;99.90;;;;;;5075752;28;20081;-87
2022/11/28 09:11:21;;;;;;;20.45;12.13;;;8.90;99.90;;;;;;5056896;28;20130;-86
2022/11/28 09:13:47;;;;;;;25.13;12.77;;;8.90;99.90;;;;;;5061743;28;20362;-86
2022/11/28 09:16:13;;;;;;;19.70;11.75;;;8.90;99.90;;;;;;5079339;28;20028;-86
2022/11/28 09:18:39;;;;;;;19.33;11.00;;;8.90;99.90;;;;;;5089933;28;20033;-86
2022/11/28 09:21:08;;;;;;;22.42;12.65;;;8.90;99.90;;;;;;5051913;28;20036;-86
2022/11/28 09:23:35;;;;;;;18.65;11.48;;;8.90;99.90;;;;;;5072016;28;20078;-87
2022/11/28 09:26:00;;;;;;;18.73;12.07;;;8.90;99.90;;;;;;5065816;28;20029;-89
2022/11/28 09:28:27;;;;;;;18.50;10.82;;;8.90;99.90;;;;;;5069084;28;20442;-89
2022/11/28 09:31:04;;;;;;;17.13;10.93;;;9.00;99.90;;;;;;5054846;28;20033;-89
2022/11/28 09:33:30;;;;;;;21.92;12.15;;;9.00;99.90;;;;;;5055226;28;20470;-89
2022/11/28 09:35:57;;;;;;;21.40;11.73;;;9.00;99.90;;;;;;5078679;28;20067;-88
2022/11/28 09:38:23;;;;;;;20.48;11.93;;;9.00;99.90;;;;;;5078593;28;20050;-88
2022/11/28 09:40:49;;;;;;;19.80;11.82;;;9.00;99.90;;;;;;5075978;28;20381;-86
2022/11/28 09:43:31;;;;;;;18.65;12.10;;;9.00;99.90;;;;;;5074538;28;20052;-86
2022/11/28 09:46:00;;;;;;;17.80;10.75;;;9.00;99.90;;;;;;5089578;28;20035;-86
2022/11/28 09:48:36;;;;;;;21.50;12.15;;;9.00;99.90;;;;;;5074079;28;20020;-86
2022/11/28 09:51:21;;;;;;;18.48;11.52;;;9.00;99.90;;;;;;5075199;28;20477;-86
2022/11/28 09:54:34;;;;;;;21.80;11.75;;;9.00;99.90;;;;;;5074109;28;20063;-86
2022/11/28 09:57:02;;;;;;;18.35;11.02;;;9.00;99.90;;;;;;5064125;28;20043;-86
2022/11/28 09:59:29;;;;;;;17.27;10.82;;;9.10;99.90;;;;;;5086604;28;20026;-86
2022/11/28 10:02:01;;;;;;;17.13;10.57;;;9.00;99.90;;;;;;5094795;28;20127;-86
2022/11/28 10:04:41;;;;;;;16.55;10.30;;;9.10;99.90;;;;;;5094637;28;20028;-86
2022/11/28 10:07:29;;;;;;;15.63;10.23;;;9.10;99.90;;;;;;5095033;28;20016;-86
2022/11/28 10:10:12;;;;;;;16.73;10.85;;;9.10;99.90;;;;;;5094339;28;20032;-87
2022/11/28 10:12:49;;;;;;;16.15;10.07;;;9.10;99.90;;;;;;5094470;28;20028;-85
2022/11/28 10:15:24;;;;;;;14.70;9.55;;;9.10;99.90;;;;;;5094509;28;20027;-86
2022/11/28 10:18:05;;;;;;;16.70;10.20;;;9.10;99.90;;;;;;5076356;28;20070;-86
2022/11/28 10:20:53;;;;;;;15.00;10.40;;;9.10;99.90;;;;;;5074044;28;20089;-86
2022/11/28 10:23:28;;;;;;;16.77;10.25;;;9.10;99.90;;;;;;5074435;28;20465;-87
2022/11/28 10:26:23;;;;;;;15.40;9.63;;;9.10;99.90;;;;;;5090856;28;20028;-87
2022/11/28 10:28:52;;;;;;;16.67;10.20;;;9.10;99.90;;;;;;5105650;28;20066;-86
2022/11/28 10:31:34;;;;;;;17.25;10.60;;;9.10;99.90;;;;;;5064518;28;20084;-85
2022/11/28 10:34:14;;;;;;;16.45;10.40;;;9.10;99.90;;;;;;5086422;28;20029;-84
2022/11/28 10:36:59;;;;;;;16.08;10.15;;;9.10;99.90;;;;;;5107556;28;20043;-88
2022/11/28 10:39:25;;;;;;;17.77;11.23;;;9.10;99.90;;;;;;5095375;28;20082;-89
2022/11/28 10:42:20;;;;;;;18.55;11.77;;;9.20;99.90;;;;;;5078505;28;20034;-88
2022/11/28 10:45:01;;;;;;;19.02;11.63;;;9.20;99.90;;;;;;5063443;28;20035;-88
2022/11/28 10:47:33;;;;;;;;;;;9.10;99.90;;;;;;5094961;28;20023;-86
2022/11/28 10:50:02;;;;;;;24.00;12.95;;;9.10;99.90;;;;;;5093737;28;19907;-87
2022/11/28 10:53:07;;;;;;;22.98;12.20;;;9.20;99.90;;;;;;5094208;28;20055;-87
2022/11/28 10:55:41;;;;;;;27.23;13.20;;;9.20;99.90;;;;;;5093569;28;20123;-86
2022/11/28 10:58:11;;;;;;;27.65;13.38;;;9.20;99.90;;;;;;5093582;28;20454;-87
2022/11/28 11:00:37;;;;;;;27.95;14.52;;;9.20;99.90;;;;;;5093226;28;20096;-87
2022/11/28 11:03:04;;;;;;;30.08;15.25;;;9.20;99.90;;;;;;5093568;28;20449;-85
2022/11/28 11:05:35;;;;;;;33.63;15.10;;;9.20;99.90;;;;;;5076700;28;20034;-86
2022/11/28 11:08:30;;;;;;;33.15;14.68;;;9.20;99.90;;;;;;5076648;28;20020;-86
2022/11/28 11:11:15;;;;;;;33.03;16.05;;;9.30;99.90;;;;;;5078080;28;20587;-86
2022/11/28 11:14:01;;;;;;;33.10;16.17;;;9.30;99.90;;;;;;5073596;28;20067;-86
2022/11/28 11:16:53;;;;;;;35.80;16.05;;;9.30;99.90;;;;;;5092001;28;20082;-86
2022/11/28 11:19:34;;;;;;;32.42;15.45;;;9.30;99.90;;;;;;5092651;28;20030;-87
2022/11/28 11:22:11;;;;;;;36.70;15.90;;;9.30;99.90;;;;;;5074391;28;20031;-87
2022/11/28 11:24:37;;;;;;;33.88;14.57;;;9.30;99.90;;;;;;5066205;28;20028;-87
2022/11/28 11:27:21;;;;;;;28.60;15.38;;;9.40;99.90;;;;;;5051733;28;20020;-87
2022/11/28 11:29:53;;;;;;;31.40;14.45;;;9.40;99.90;;;;;;5072529;28;20025;-87
2022/11/28 11:32:25;;;;;;;30.90;14.57;;;9.40;99.90;;;;;;5053847;28;20021;-86
2022/11/28 11:34:57;;;;;;;30.13;14.82;;;9.40;99.90;;;;;;5103838;28;20537;-86
2022/11/28 11:37:32;;;;;;;32.28;15.60;;;9.40;99.90;;;;;;5057798;28;20047;-87
2022/11/28 11:39:59;;;;;;;33.25;15.10;;;9.50;99.90;;;;;;5077725;28;20020;-87
2022/11/28 11:42:31;;;;;;;36.47;16.58;;;9.50;99.90;;;;;;5064669;28;20024;-88
2022/11/28 11:45:24;;;;;;;34.90;16.52;;;9.40;99.90;;;;;;5097217;28;20020;-89
2022/11/28 11:47:50;;;;;;;32.45;15.57;;;9.40;99.90;;;;;;5096945;28;20048;-87
2022/11/28 11:50:21;;;;;;;34.33;17.17;;;9.40;99.90;;;;;;5073501;28;20492;-87
2022/11/28 11:53:04;;;;;;;;;;;9.40;99.90;;;;;;5073686;28;20090;-88
2022/11/28 11:55:33;;;;;;;33.22;15.85;;;9.40;99.90;;;;;;5078060;28;19908;-87
2022/11/28 11:58:01;;;;;;;36.13;16.85;;;9.40;99.90;;;;;;5072858;28;20062;-87
2022/11/28 12:00:36;;;;;;;36.75;17.00;;;9.50;99.90;;;;;;5055901;28;20401;-88
2022/11/28 12:03:19;;;;;;;38.25;17.92;;;9.50;99.90;;;;;;5076851;28;20024;-88
2022/11/28 12:05:55;;;;;;;41.83;17.75;;;9.50;99.90;;;;;;5086946;28;20024;-88
2022/11/28 12:08:34;;;;;;;38.97;16.48;;;9.50;99.90;;;;;;5098185;28;20020;-87
2022/11/28 12:11:25;;;;;;;36.58;16.55;;;9.50;99.90;;;;;;5076526;28;20066;-89
2022/11/28 12:13:56;;;;;;;34.42;17.00;;;9.50;99.90;;;;;;5061443;28;20028;-88
2022/11/28 12:16:51;;;;;;;34.80;16.67;;;9.50;99.90;;;;;;5076801;28;20028;-87
2022/11/28 12:19:26;;;;;;;36.95;17.10;;;9.50;99.90;;;;;;5076189;28;20026;-88
2022/11/28 12:22:34;;;;;;;38.38;17.42;;;9.60;99.90;;;;;;5076330;28;20036;-87
2022/11/28 12:25:41;;;;;;;30.20;15.82;;;9.50;99.90;;;;;;5075950;28;20032;-88
2022/11/28 12:28:40;;;;;;;39.13;16.88;;;9.60;99.90;;;;;;5015406;28;20120;-87
2022/11/28 12:31:17;;;;;;;32.97;15.27;;;9.60;99.90;;;;;;5070150;28;20466;-85
2022/11/28 12:34:30;;;;;;;37.97;16.02;;;9.60;99.90;;;;;;5057248;28;20029;-85
2022/11/28 12:37:08;;;;;;;32.35;14.85;;;9.60;99.90;;;;;;5051546;28;20103;-86
2022/11/28 12:39:49;;;;;;;37.45;16.85;;;9.60;99.90;;;;;;5080975;28;20116;-86
2022/11/28 12:42:24;;;;;;;34.47;16.85;;;9.70;99.90;;;;;;5092445;28;20429;-89
2022/11/28 12:44:57;;;;;;;37.28;16.98;;;9.70;99.90;;;;;;5072210;28;20024;-86
2022/11/28 12:47:53;;;;;;;36.92;15.75;;;9.70;99.90;;;;;;5073544;28;20263;-86
2022/11/28 12:50:42;;;;;;;33.72;14.02;;;9.70;99.90;;;;;;5073929;28;20024;-86
2022/11/28 12:53:26;;;;;;;34.83;15.50;;;9.70;99.90;;;;;;5073247;28;20024;-86
2022/11/28 12:56:04;;;;;;;33.42;15.43;;;9.80;99.90;;;;;;5074492;28;20056;-87
2022/11/28 12:58:40;;;;;;;34.72;16.20;;;9.80;99.90;;;;;;5074752;28;20024;-87
2022/11/28 13:01:29;;;;;;;31.90;14.90;;;9.80;99.90;;;;;;5074834;28;20060;-87
2022/11/28 13:04:17;;;;;;;39.67;16.85;;;9.90;99.90;;;;;;5075419;28;20078;-87
2022/11/28 13:07:26;;;;;;;37.45;15.50;;;9.90;99.90;;;;;;5090946;28;20020;-88
2022/11/28 13:10:10;;;;;;;40.25;17.17;;;9.90;99.90;;;;;;5097917;28;20434;-88
2022/11/28 13:12:56;;;;;;;35.30;15.60;;;9.90;99.90;;;;;;5096773;28;20085;-88